sensor_id;sensor_type;location;lat;lon;timestamp;temperature;humidity
65406;DHT22;52016;51.228;-2.322;2022-09-12T00:02:54;17.60;72.40
65406;DHT22;52016;51.228;-2.322;2022-09-12T00:06:36;17.60;72.40
65406;DHT22;52016;51.228;-2.322;2022-09-12T00:10:18;17.60;72.50
65406;DHT22;52016;51.228;-2.322;2022-09-12T00:14:00;17.60;72.60
65406;DHT22;52016;51.228;-2.322;2022-09-12T00:17:42;17.50;72.60
65406;DHT22;52016;51.228;-2.322;2022-09-12T00:21:24;17.50;72.60
65406;DHT22;52016;51.228;-2.322;2022-09-12T00:25:06;17.50;72.70
65406;DHT22;52016;51.228;-2.322;2022-09-12T00:28:49;17.50;72.80
65406;DHT22;52016;51.228;-2.322;2022-09-12T00:32:31;17.40;72.90
65406;DHT22;52016;51.228;-2.322;2022-09-12T00:36:18;17.40;73.00
65406;DHT22;52016;51.228;-2.322;2022-09-12T00:40:01;17.40;73.00
65406;DHT22;52016;51.228;-2.322;2022-09-12T00:43:51;17.40;73.00
65406;DHT22;52016;51.228;-2.322;2022-09-12T00:47:35;17.40;73.50
65406;DHT22;52016;51.228;-2.322;2022-09-12T00:51:18;17.40;73.10
65406;DHT22;52016;51.228;-2.322;2022-09-12T00:55:11;17.40;73.10
65406;DHT22;52016;51.228;-2.322;2022-09-12T00:59:00;17.50;74.00
65406;DHT22;52016;51.228;-2.322;2022-09-12T01:02:46;17.50;73.50
65406;DHT22;52016;51.228;-2.322;2022-09-12T01:06:35;17.40;73.10
65406;DHT22;52016;51.228;-2.322;2022-09-12T01:10:18;17.50;73.40
65406;DHT22;52016;51.228;-2.322;2022-09-12T01:14:00;17.40;73.10
65406;DHT22;52016;51.228;-2.322;2022-09-12T01:33:27;17.40;74.10
65406;DHT22;52016;51.228;-2.322;2022-09-12T01:37:31;17.40;74.20
65406;DHT22;52016;51.228;-2.322;2022-09-12T01:50:17;17.30;74.60
65406;DHT22;52016;51.228;-2.322;2022-09-12T01:54:18;17.20;74.70
65406;DHT22;52016;51.228;-2.322;2022-09-12T02:02:02;17.30;73.90
65406;DHT22;52016;51.228;-2.322;2022-09-12T02:09:40;17.30;73.70
65406;DHT22;52016;51.228;-2.322;2022-09-12T02:13:47;17.40;74.00
65406;DHT22;52016;51.228;-2.322;2022-09-12T02:17:41;17.40;74.80
65406;DHT22;52016;51.228;-2.322;2022-09-12T02:21:25;17.40;73.80
65406;DHT22;52016;51.228;-2.322;2022-09-12T02:25:09;17.40;73.60
65406;DHT22;52016;51.228;-2.322;2022-09-12T02:28:52;17.40;73.60
65406;DHT22;52016;51.228;-2.322;2022-09-12T02:32:37;17.40;73.60
65406;DHT22;52016;51.228;-2.322;2022-09-12T02:36:33;17.40;73.70
65406;DHT22;52016;51.228;-2.322;2022-09-12T02:40:17;17.50;74.10
65406;DHT22;52016;51.228;-2.322;2022-09-12T02:43:59;17.40;73.70
65406;DHT22;52016;51.228;-2.322;2022-09-12T02:47:47;17.40;73.70
65406;DHT22;52016;51.228;-2.322;2022-09-12T02:51:30;17.40;73.90
65406;DHT22;52016;51.228;-2.322;2022-09-12T02:55:13;17.40;73.80
65406;DHT22;52016;51.228;-2.322;2022-09-12T02:59:01;17.40;73.90
65406;DHT22;52016;51.228;-2.322;2022-09-12T03:07:15;17.40;74.50
65406;DHT22;52016;51.228;-2.322;2022-09-12T03:15:27;17.30;74.90
65406;DHT22;52016;51.228;-2.322;2022-09-12T03:23:42;17.30;75.10
65406;DHT22;52016;51.228;-2.322;2022-09-12T03:27:38;17.30;74.60
65406;DHT22;52016;51.228;-2.322;2022-09-12T03:31:21;17.30;74.20
65406;DHT22;52016;51.228;-2.322;2022-09-12T03:35:03;17.30;74.30
65406;DHT22;52016;51.228;-2.322;2022-09-12T03:38:45;17.40;74.40
65406;DHT22;52016;51.228;-2.322;2022-09-12T03:42:27;17.40;74.50
65406;DHT22;52016;51.228;-2.322;2022-09-12T03:46:09;17.40;74.70
65406;DHT22;52016;51.228;-2.322;2022-09-12T03:49:51;17.40;74.90
65406;DHT22;52016;51.228;-2.322;2022-09-12T03:53:36;17.40;74.90
65406;DHT22;52016;51.228;-2.322;2022-09-12T03:57:17;17.40;75.10
65406;DHT22;52016;51.228;-2.322;2022-09-12T04:00:59;17.40;75.10
65406;DHT22;52016;51.228;-2.322;2022-09-12T04:04:42;17.50;75.20
65406;DHT22;52016;51.228;-2.322;2022-09-12T04:08:24;17.50;75.30
65406;DHT22;52016;51.228;-2.322;2022-09-12T04:12:07;17.60;75.30
65406;DHT22;52016;51.228;-2.322;2022-09-12T04:15:55;17.50;75.40
65406;DHT22;52016;51.228;-2.322;2022-09-12T04:19:37;17.60;76.10
65406;DHT22;52016;51.228;-2.322;2022-09-12T04:23:19;17.60;75.70
65406;DHT22;52016;51.228;-2.322;2022-09-12T04:27:01;17.60;75.70
65406;DHT22;52016;51.228;-2.322;2022-09-12T04:30:48;17.50;75.80
65406;DHT22;52016;51.228;-2.322;2022-09-12T04:34:30;17.50;76.10
65406;DHT22;52016;51.228;-2.322;2022-09-12T04:38:14;17.50;76.00
65406;DHT22;52016;51.228;-2.322;2022-09-12T04:41:55;17.50;76.00
65406;DHT22;52016;51.228;-2.322;2022-09-12T04:45:37;17.50;76.40
65406;DHT22;52016;51.228;-2.322;2022-09-12T04:49:19;17.50;76.40
65406;DHT22;52016;51.228;-2.322;2022-09-12T04:53:01;17.50;76.40
65406;DHT22;52016;51.228;-2.322;2022-09-12T04:56:44;17.50;76.50
65406;DHT22;52016;51.228;-2.322;2022-09-12T05:00:27;17.50;76.40
65406;DHT22;52016;51.228;-2.322;2022-09-12T05:04:10;17.40;76.40
65406;DHT22;52016;51.228;-2.322;2022-09-12T05:07:53;17.40;76.40
65406;DHT22;52016;51.228;-2.322;2022-09-12T05:11:37;17.40;76.50
65406;DHT22;52016;51.228;-2.322;2022-09-12T05:15:40;17.40;76.50
65406;DHT22;52016;51.228;-2.322;2022-09-12T05:19:21;17.40;76.50
65406;DHT22;52016;51.228;-2.322;2022-09-12T05:23:04;17.30;76.60
65406;DHT22;52016;51.228;-2.322;2022-09-12T05:26:45;17.30;76.70
65406;DHT22;52016;51.228;-2.322;2022-09-12T05:30:27;17.30;76.70
65406;DHT22;52016;51.228;-2.322;2022-09-12T05:34:09;17.30;76.80
65406;DHT22;52016;51.228;-2.322;2022-09-12T05:37:51;17.30;76.80
65406;DHT22;52016;51.228;-2.322;2022-09-12T05:41:34;17.20;76.80
65406;DHT22;52016;51.228;-2.322;2022-09-12T05:45:16;17.20;76.90
65406;DHT22;52016;51.228;-2.322;2022-09-12T05:49:06;17.20;76.90
65406;DHT22;52016;51.228;-2.322;2022-09-12T05:52:48;17.20;77.20
65406;DHT22;52016;51.228;-2.322;2022-09-12T05:56:32;17.10;77.00
65406;DHT22;52016;51.228;-2.322;2022-09-12T06:00:15;17.20;77.10
65406;DHT22;52016;51.228;-2.322;2022-09-12T06:04:00;17.20;77.20
65406;DHT22;52016;51.228;-2.322;2022-09-12T06:07:45;17.30;77.20
65406;DHT22;52016;51.228;-2.322;2022-09-12T06:11:30;17.30;77.20
65406;DHT22;52016;51.228;-2.322;2022-09-12T06:15:11;17.40;77.30
65406;DHT22;52016;51.228;-2.322;2022-09-12T06:19:05;17.40;77.30
65406;DHT22;52016;51.228;-2.322;2022-09-12T06:22:52;17.40;77.30
65406;DHT22;52016;51.228;-2.322;2022-09-12T06:26:34;17.50;77.60
65406;DHT22;52016;51.228;-2.322;2022-09-12T06:30:16;17.50;77.30
65406;DHT22;52016;51.228;-2.322;2022-09-12T06:34:06;17.60;77.30
65406;DHT22;52016;51.228;-2.322;2022-09-12T06:37:48;17.70;77.40
65406;DHT22;52016;51.228;-2.322;2022-09-12T06:41:31;17.70;77.30
65406;DHT22;52016;51.228;-2.322;2022-09-12T06:45:13;17.80;77.30
65406;DHT22;52016;51.228;-2.322;2022-09-12T06:48:57;17.90;77.40
65406;DHT22;52016;51.228;-2.322;2022-09-12T06:52:40;17.90;77.40
65406;DHT22;52016;51.228;-2.322;2022-09-12T06:56:24;17.90;77.50
65406;DHT22;52016;51.228;-2.322;2022-09-12T07:00:07;17.90;77.50
65406;DHT22;52016;51.228;-2.322;2022-09-12T07:03:51;18.00;77.50
65406;DHT22;52016;51.228;-2.322;2022-09-12T07:07:34;18.10;77.50
65406;DHT22;52016;51.228;-2.322;2022-09-12T07:11:19;18.10;77.50
65406;DHT22;52016;51.228;-2.322;2022-09-12T07:15:01;18.20;77.50
65406;DHT22;52016;51.228;-2.322;2022-09-12T07:18:42;18.30;77.50
65406;DHT22;52016;51.228;-2.322;2022-09-12T07:22:26;18.30;77.50
65406;DHT22;52016;51.228;-2.322;2022-09-12T07:26:13;18.40;77.60
65406;DHT22;52016;51.228;-2.322;2022-09-12T07:29:55;18.40;77.70
65406;DHT22;52016;51.228;-2.322;2022-09-12T07:33:37;18.50;77.60
65406;DHT22;52016;51.228;-2.322;2022-09-12T07:37:19;18.60;77.60
65406;DHT22;52016;51.228;-2.322;2022-09-12T07:41:01;18.60;77.50
65406;DHT22;52016;51.228;-2.322;2022-09-12T07:44:50;18.70;77.50
65406;DHT22;52016;51.228;-2.322;2022-09-12T07:48:33;18.80;77.50
65406;DHT22;52016;51.228;-2.322;2022-09-12T07:52:15;18.80;77.40
65406;DHT22;52016;51.228;-2.322;2022-09-12T07:55:57;18.90;77.30
65406;DHT22;52016;51.228;-2.322;2022-09-12T07:59:39;18.90;77.40
65406;DHT22;52016;51.228;-2.322;2022-09-12T08:03:40;19.00;77.40
65406;DHT22;52016;51.228;-2.322;2022-09-12T08:07:22;19.10;77.50
65406;DHT22;52016;51.228;-2.322;2022-09-12T08:11:08;19.20;77.30
65406;DHT22;52016;51.228;-2.322;2022-09-12T08:14:50;19.30;77.30
65406;DHT22;52016;51.228;-2.322;2022-09-12T08:18:32;19.40;77.20
65406;DHT22;52016;51.228;-2.322;2022-09-12T08:22:15;19.50;77.10
65406;DHT22;52016;51.228;-2.322;2022-09-12T08:26:01;19.60;77.00
65406;DHT22;52016;51.228;-2.322;2022-09-12T08:29:47;19.80;77.00
65406;DHT22;52016;51.228;-2.322;2022-09-12T08:33:29;19.90;76.90
65406;DHT22;52016;51.228;-2.322;2022-09-12T08:37:14;20.00;76.70
65406;DHT22;52016;51.228;-2.322;2022-09-12T08:45:17;20.20;76.80
65406;DHT22;52016;51.228;-2.322;2022-09-12T08:49:02;20.40;76.50
65406;DHT22;52016;51.228;-2.322;2022-09-12T08:53:10;20.60;76.30
65406;DHT22;52016;51.228;-2.322;2022-09-12T08:57:00;20.70;76.10
65406;DHT22;52016;51.228;-2.322;2022-09-12T09:01:06;20.80;76.00
65406;DHT22;52016;51.228;-2.322;2022-09-12T09:04:51;20.80;75.90
65406;DHT22;52016;51.228;-2.322;2022-09-12T09:16:49;21.10;75.50
65406;DHT22;52016;51.228;-2.322;2022-09-12T09:20:50;21.10;75.50
65406;DHT22;52016;51.228;-2.322;2022-09-12T09:24:41;21.20;75.40
65406;DHT22;52016;51.228;-2.322;2022-09-12T09:32:18;21.40;74.90
65406;DHT22;52016;51.228;-2.322;2022-09-12T09:39:59;21.40;74.70
65406;DHT22;52016;51.228;-2.322;2022-09-12T09:43:42;21.40;75.00
65406;DHT22;52016;51.228;-2.322;2022-09-12T09:47:25;21.40;74.90
65406;DHT22;52016;51.228;-2.322;2022-09-12T09:51:07;21.50;74.80
65406;DHT22;52016;51.228;-2.322;2022-09-12T09:54:59;21.60;74.60
65406;DHT22;52016;51.228;-2.322;2022-09-12T09:58:41;21.80;73.70
65406;DHT22;52016;51.228;-2.322;2022-09-12T10:02:24;21.90;73.90
65406;DHT22;52016;51.228;-2.322;2022-09-12T10:06:22;21.90;73.20
65406;DHT22;52016;51.228;-2.322;2022-09-12T10:10:18;21.90;71.00
65406;DHT22;52016;51.228;-2.322;2022-09-12T10:14:00;22.00;71.30
65406;DHT22;52016;51.228;-2.322;2022-09-12T10:17:43;22.10;72.30
65406;DHT22;52016;51.228;-2.322;2022-09-12T10:25:15;22.40;70.60
65406;DHT22;52016;51.228;-2.322;2022-09-12T10:29:03;22.40;70.70
65406;DHT22;52016;51.228;-2.322;2022-09-12T10:32:48;22.60;70.40
65406;DHT22;52016;51.228;-2.322;2022-09-12T10:36:36;22.70;70.40
65406;DHT22;52016;51.228;-2.322;2022-09-12T10:40:45;22.80;69.60
65406;DHT22;52016;51.228;-2.322;2022-09-12T10:44:35;22.90;66.90
65406;DHT22;52016;51.228;-2.322;2022-09-12T10:48:29;23.10;69.50
65406;DHT22;52016;51.228;-2.322;2022-09-12T10:52:23;23.20;67.30
65406;DHT22;52016;51.228;-2.322;2022-09-12T10:56:18;23.30;68.60
65406;DHT22;52016;51.228;-2.322;2022-09-12T11:00:17;23.40;67.30
65406;DHT22;52016;51.228;-2.322;2022-09-12T11:20:34;24.10;61.60
65406;DHT22;52016;51.228;-2.322;2022-09-12T11:36:44;24.70;64.90
65406;DHT22;52016;51.228;-2.322;2022-09-12T11:40:52;24.90;61.90
65406;DHT22;52016;51.228;-2.322;2022-09-12T11:44:40;25.10;59.20
65406;DHT22;52016;51.228;-2.322;2022-09-12T11:52:42;25.40;59.80
65406;DHT22;52016;51.228;-2.322;2022-09-12T11:56:24;25.50;63.30
65406;DHT22;52016;51.228;-2.322;2022-09-12T12:00:18;25.40;62.70
65406;DHT22;52016;51.228;-2.322;2022-09-12T12:04:07;25.50;60.00
65406;DHT22;52016;51.228;-2.322;2022-09-12T12:07:54;25.60;60.20
65406;DHT22;52016;51.228;-2.322;2022-09-12T12:11:43;25.80;62.20
65406;DHT22;52016;51.228;-2.322;2022-09-12T12:15:26;25.90;61.30
65406;DHT22;52016;51.228;-2.322;2022-09-12T12:22:55;25.70;59.60
65406;DHT22;52016;51.228;-2.322;2022-09-12T12:30:57;25.60;60.90
65406;DHT22;52016;51.228;-2.322;2022-09-12T12:34:42;25.70;57.20
65406;DHT22;52016;51.228;-2.322;2022-09-12T12:38:32;25.60;61.00
65406;DHT22;52016;51.228;-2.322;2022-09-12T12:46:22;25.40;59.10
65406;DHT22;52016;51.228;-2.322;2022-09-12T12:50:22;25.40;60.20
65406;DHT22;52016;51.228;-2.322;2022-09-12T12:54:33;25.30;57.80
65406;DHT22;52016;51.228;-2.322;2022-09-12T12:58:28;25.20;59.10
65406;DHT22;52016;51.228;-2.322;2022-09-12T13:06:33;25.10;59.40
65406;DHT22;52016;51.228;-2.322;2022-09-12T13:10:22;25.00;58.70
65406;DHT22;52016;51.228;-2.322;2022-09-12T13:14:46;25.00;59.40
65406;DHT22;52016;51.228;-2.322;2022-09-12T13:18:44;25.00;58.60
65406;DHT22;52016;51.228;-2.322;2022-09-12T13:22:38;25.10;59.00
65406;DHT22;52016;51.228;-2.322;2022-09-12T13:26:22;25.20;58.60
65406;DHT22;52016;51.228;-2.322;2022-09-12T13:30:11;25.40;60.20
65406;DHT22;52016;51.228;-2.322;2022-09-12T13:33:59;25.60;59.20
65406;DHT22;52016;51.228;-2.322;2022-09-12T13:37:57;25.90;58.50
65406;DHT22;52016;51.228;-2.322;2022-09-12T13:45:27;26.20;59.00
65406;DHT22;52016;51.228;-2.322;2022-09-12T13:49:33;26.30;58.80
65406;DHT22;52016;51.228;-2.322;2022-09-12T13:53:17;26.40;55.70
65406;DHT22;52016;51.228;-2.322;2022-09-12T13:57:00;26.50;58.00
65406;DHT22;52016;51.228;-2.322;2022-09-12T14:00:42;26.70;57.60
65406;DHT22;52016;51.228;-2.322;2022-09-12T14:04:25;26.90;57.60
65406;DHT22;52016;51.228;-2.322;2022-09-12T14:08:26;27.10;57.50
65406;DHT22;52016;51.228;-2.322;2022-09-12T14:16:05;27.70;52.40
65406;DHT22;52016;51.228;-2.322;2022-09-12T14:19:51;28.00;56.20
65406;DHT22;52016;51.228;-2.322;2022-09-12T14:23:39;28.20;55.70
65406;DHT22;52016;51.228;-2.322;2022-09-12T14:27:36;28.20;55.40
65406;DHT22;52016;51.228;-2.322;2022-09-12T14:31:23;28.00;54.90
65406;DHT22;52016;51.228;-2.322;2022-09-12T14:39:02;27.70;53.40
65406;DHT22;52016;51.228;-2.322;2022-09-12T14:42:46;27.60;53.70
65406;DHT22;52016;51.228;-2.322;2022-09-12T14:46:33;27.50;55.40
65406;DHT22;52016;51.228;-2.322;2022-09-12T14:50:19;27.40;55.30
65406;DHT22;52016;51.228;-2.322;2022-09-12T14:54:02;27.40;55.10
65406;DHT22;52016;51.228;-2.322;2022-09-12T14:57:44;27.40;55.10
65406;DHT22;52016;51.228;-2.322;2022-09-12T15:01:26;27.30;55.20
65406;DHT22;52016;51.228;-2.322;2022-09-12T15:08:54;26.90;55.10
65406;DHT22;52016;51.228;-2.322;2022-09-12T15:12:37;26.70;55.30
65406;DHT22;52016;51.228;-2.322;2022-09-12T15:16:19;26.60;55.40
65406;DHT22;52016;51.228;-2.322;2022-09-12T15:20:01;26.60;55.40
65406;DHT22;52016;51.228;-2.322;2022-09-12T15:23:46;26.60;55.40
65406;DHT22;52016;51.228;-2.322;2022-09-12T15:27:29;26.50;55.10
65406;DHT22;52016;51.228;-2.322;2022-09-12T15:31:30;26.40;55.40
65406;DHT22;52016;51.228;-2.322;2022-09-12T15:35:21;26.30;53.70
65406;DHT22;52016;51.228;-2.322;2022-09-12T15:39:03;26.20;54.20
65406;DHT22;52016;51.228;-2.322;2022-09-12T15:42:45;26.10;55.50
65406;DHT22;52016;51.228;-2.322;2022-09-12T15:46:27;26.00;55.40
65406;DHT22;52016;51.228;-2.322;2022-09-12T15:50:09;25.90;55.60
65406;DHT22;52016;51.228;-2.322;2022-09-12T15:53:51;25.70;55.50
65406;DHT22;52016;51.228;-2.322;2022-09-12T15:57:33;25.70;55.50
65406;DHT22;52016;51.228;-2.322;2022-09-12T16:01:16;25.50;55.40
65406;DHT22;52016;51.228;-2.322;2022-09-12T16:04:58;25.40;55.50
65406;DHT22;52016;51.228;-2.322;2022-09-12T16:08:40;25.40;55.50
65406;DHT22;52016;51.228;-2.322;2022-09-12T16:12:22;25.30;55.60
65406;DHT22;52016;51.228;-2.322;2022-09-12T16:16:03;25.20;55.60
65406;DHT22;52016;51.228;-2.322;2022-09-12T16:19:45;25.20;55.60
65406;DHT22;52016;51.228;-2.322;2022-09-12T16:23:27;25.10;55.60
65406;DHT22;52016;51.228;-2.322;2022-09-12T16:27:09;25.10;55.60
65406;DHT22;52016;51.228;-2.322;2022-09-12T16:31:01;25.00;55.80
65406;DHT22;52016;51.228;-2.322;2022-09-12T16:34:43;25.00;55.50
65406;DHT22;52016;51.228;-2.322;2022-09-12T16:38:25;24.90;55.90
65406;DHT22;52016;51.228;-2.322;2022-09-12T16:42:07;24.90;56.00
65406;DHT22;52016;51.228;-2.322;2022-09-12T16:45:49;24.70;56.10
65406;DHT22;52016;51.228;-2.322;2022-09-12T16:49:30;24.70;56.10
65406;DHT22;52016;51.228;-2.322;2022-09-12T16:53:12;24.70;56.20
65406;DHT22;52016;51.228;-2.322;2022-09-12T16:56:54;24.70;56.30
65406;DHT22;52016;51.228;-2.322;2022-09-12T17:00:36;24.70;56.40
65406;DHT22;52016;51.228;-2.322;2022-09-12T17:04:18;24.70;56.40
65406;DHT22;52016;51.228;-2.322;2022-09-12T17:08:04;24.70;56.40
65406;DHT22;52016;51.228;-2.322;2022-09-12T17:11:46;24.80;56.50
65406;DHT22;52016;51.228;-2.322;2022-09-12T17:15:28;24.80;56.40
65406;DHT22;52016;51.228;-2.322;2022-09-12T17:19:14;24.70;56.30
65406;DHT22;52016;51.228;-2.322;2022-09-12T17:22:56;24.60;56.30
65406;DHT22;52016;51.228;-2.322;2022-09-12T17:26:38;24.50;56.40
65406;DHT22;52016;51.228;-2.322;2022-09-12T17:30:20;24.40;56.50
65406;DHT22;52016;51.228;-2.322;2022-09-12T17:34:02;24.30;56.60
65406;DHT22;52016;51.228;-2.322;2022-09-12T17:37:44;24.20;56.70
65406;DHT22;52016;51.228;-2.322;2022-09-12T17:41:27;24.10;56.80
65406;DHT22;52016;51.228;-2.322;2022-09-12T17:45:10;24.00;56.90
65406;DHT22;52016;51.228;-2.322;2022-09-12T17:48:59;23.90;57.00
65406;DHT22;52016;51.228;-2.322;2022-09-12T17:52:41;23.80;57.10
65406;DHT22;52016;51.228;-2.322;2022-09-12T17:56:23;23.70;57.30
65406;DHT22;52016;51.228;-2.322;2022-09-12T18:00:06;23.70;57.40
65406;DHT22;52016;51.228;-2.322;2022-09-12T18:03:48;23.60;57.60
65406;DHT22;52016;51.228;-2.322;2022-09-12T18:07:30;23.50;57.70
65406;DHT22;52016;51.228;-2.322;2022-09-12T18:11:12;23.40;57.80
65406;DHT22;52016;51.228;-2.322;2022-09-12T18:14:54;23.40;57.90
65406;DHT22;52016;51.228;-2.322;2022-09-12T18:18:36;23.40;57.90
65406;DHT22;52016;51.228;-2.322;2022-09-12T18:22:18;23.30;58.00
65406;DHT22;52016;51.228;-2.322;2022-09-12T18:26:05;23.20;58.00
65406;DHT22;52016;51.228;-2.322;2022-09-12T18:29:47;23.20;58.00
65406;DHT22;52016;51.228;-2.322;2022-09-12T18:33:49;23.10;58.10
65406;DHT22;52016;51.228;-2.322;2022-09-12T18:37:31;23.10;58.20
65406;DHT22;52016;51.228;-2.322;2022-09-12T18:41:18;23.10;58.40
65406;DHT22;52016;51.228;-2.322;2022-09-12T18:45:00;23.00;58.50
65406;DHT22;52016;51.228;-2.322;2022-09-12T18:48:42;22.90;58.60
65406;DHT22;52016;51.228;-2.322;2022-09-12T18:52:25;22.90;58.80
65406;DHT22;52016;51.228;-2.322;2022-09-12T18:56:12;22.90;58.90
65406;DHT22;52016;51.228;-2.322;2022-09-12T18:59:54;22.90;59.10
65406;DHT22;52016;51.228;-2.322;2022-09-12T19:03:40;22.90;59.10
65406;DHT22;52016;51.228;-2.322;2022-09-12T19:07:22;22.80;59.10
65406;DHT22;52016;51.228;-2.322;2022-09-12T19:11:04;22.80;59.20
65406;DHT22;52016;51.228;-2.322;2022-09-12T19:14:46;22.80;59.30
65406;DHT22;52016;51.228;-2.322;2022-09-12T19:18:28;22.70;59.30
65406;DHT22;52016;51.228;-2.322;2022-09-12T19:22:11;22.70;59.30
65406;DHT22;52016;51.228;-2.322;2022-09-12T19:26:03;22.70;59.40
65406;DHT22;52016;51.228;-2.322;2022-09-12T19:29:45;22.60;59.50
65406;DHT22;52016;51.228;-2.322;2022-09-12T19:33:27;22.60;59.50
65406;DHT22;52016;51.228;-2.322;2022-09-12T19:37:08;22.60;59.60
65406;DHT22;52016;51.228;-2.322;2022-09-12T19:41:01;22.50;59.60
65406;DHT22;52016;51.228;-2.322;2022-09-12T19:44:43;22.50;60.10
65406;DHT22;52016;51.228;-2.322;2022-09-12T19:48:26;22.40;59.80
65406;DHT22;52016;51.228;-2.322;2022-09-12T19:52:08;22.40;59.90
65406;DHT22;52016;51.228;-2.322;2022-09-12T19:55:49;22.40;59.90
65406;DHT22;52016;51.228;-2.322;2022-09-12T19:59:31;22.30;60.00
65406;DHT22;52016;51.228;-2.322;2022-09-12T20:03:13;22.30;60.10
65406;DHT22;52016;51.228;-2.322;2022-09-12T20:06:55;22.30;60.30
65406;DHT22;52016;51.228;-2.322;2022-09-12T20:10:37;22.20;60.40
65406;DHT22;52016;51.228;-2.322;2022-09-12T20:14:19;22.10;60.50
65406;DHT22;52016;51.228;-2.322;2022-09-12T20:18:01;22.10;60.70
65406;DHT22;52016;51.228;-2.322;2022-09-12T20:21:43;22.00;61.00
65406;DHT22;52016;51.228;-2.322;2022-09-12T20:25:25;22.00;61.30
65406;DHT22;52016;51.228;-2.322;2022-09-12T20:29:08;21.90;61.50
65406;DHT22;52016;51.228;-2.322;2022-09-12T20:32:50;21.90;61.60
65406;DHT22;52016;51.228;-2.322;2022-09-12T20:36:32;21.90;61.70
65406;DHT22;52016;51.228;-2.322;2022-09-12T20:40:14;21.90;61.80
65406;DHT22;52016;51.228;-2.322;2022-09-12T20:43:56;21.90;61.80
65406;DHT22;52016;51.228;-2.322;2022-09-12T20:47:38;21.90;61.90
65406;DHT22;52016;51.228;-2.322;2022-09-12T20:51:20;21.90;61.90
65406;DHT22;52016;51.228;-2.322;2022-09-12T20:55:02;21.80;62.00
65406;DHT22;52016;51.228;-2.322;2022-09-12T20:58:44;21.80;62.00
65406;DHT22;52016;51.228;-2.322;2022-09-12T21:02:26;21.80;62.10
65406;DHT22;52016;51.228;-2.322;2022-09-12T21:06:11;21.70;62.20
65406;DHT22;52016;51.228;-2.322;2022-09-12T21:09:53;21.70;62.20
65406;DHT22;52016;51.228;-2.322;2022-09-12T21:13:36;21.60;62.30
65406;DHT22;52016;51.228;-2.322;2022-09-12T21:17:18;21.60;62.30
65406;DHT22;52016;51.228;-2.322;2022-09-12T21:20:59;21.70;62.40
65406;DHT22;52016;51.228;-2.322;2022-09-12T21:24:41;21.60;62.40
65406;DHT22;52016;51.228;-2.322;2022-09-12T21:28:23;21.60;62.50
65406;DHT22;52016;51.228;-2.322;2022-09-12T21:32:05;21.50;62.60
65406;DHT22;52016;51.228;-2.322;2022-09-12T21:35:51;21.50;62.70
65406;DHT22;52016;51.228;-2.322;2022-09-12T21:39:33;21.50;62.80
65406;DHT22;52016;51.228;-2.322;2022-09-12T21:43:15;21.50;62.80
65406;DHT22;52016;51.228;-2.322;2022-09-12T21:46:56;21.50;62.90
65406;DHT22;52016;51.228;-2.322;2022-09-12T21:50:39;21.50;62.90
65406;DHT22;52016;51.228;-2.322;2022-09-12T21:54:20;21.50;62.90
65406;DHT22;52016;51.228;-2.322;2022-09-12T21:58:02;21.40;63.00
65406;DHT22;52016;51.228;-2.322;2022-09-12T22:01:44;21.40;63.00
65406;DHT22;52016;51.228;-2.322;2022-09-12T22:05:26;21.40;63.10
65406;DHT22;52016;51.228;-2.322;2022-09-12T22:09:10;21.30;63.20
65406;DHT22;52016;51.228;-2.322;2022-09-12T22:12:52;21.30;63.30
65406;DHT22;52016;51.228;-2.322;2022-09-12T22:16:34;21.20;63.50
65406;DHT22;52016;51.228;-2.322;2022-09-12T22:20:16;21.20;63.70
65406;DHT22;52016;51.228;-2.322;2022-09-12T22:23:57;21.10;63.80
65406;DHT22;52016;51.228;-2.322;2022-09-12T22:27:58;21.10;63.80
65406;DHT22;52016;51.228;-2.322;2022-09-12T22:31:40;21.00;63.90
65406;DHT22;52016;51.228;-2.322;2022-09-12T22:35:22;20.90;63.90
65406;DHT22;52016;51.228;-2.322;2022-09-12T22:39:04;20.90;64.00
65406;DHT22;52016;51.228;-2.322;2022-09-12T22:42:46;20.90;64.10
65406;DHT22;52016;51.228;-2.322;2022-09-12T22:46:28;20.90;64.00
65406;DHT22;52016;51.228;-2.322;2022-09-12T22:50:11;20.90;64.00
65406;DHT22;52016;51.228;-2.322;2022-09-12T22:53:52;20.90;64.00
65406;DHT22;52016;51.228;-2.322;2022-09-12T22:57:34;20.90;64.10
65406;DHT22;52016;51.228;-2.322;2022-09-12T23:01:16;20.80;64.30
65406;DHT22;52016;51.228;-2.322;2022-09-12T23:04:58;20.70;64.40
65406;DHT22;52016;51.228;-2.322;2022-09-12T23:08:40;20.70;64.50
65406;DHT22;52016;51.228;-2.322;2022-09-12T23:12:22;20.70;64.60
65406;DHT22;52016;51.228;-2.322;2022-09-12T23:16:06;20.70;64.50
65406;DHT22;52016;51.228;-2.322;2022-09-12T23:19:48;20.70;64.50
65406;DHT22;52016;51.228;-2.322;2022-09-12T23:23:30;20.60;64.50
65406;DHT22;52016;51.228;-2.322;2022-09-12T23:27:12;20.60;64.60
65406;DHT22;52016;51.228;-2.322;2022-09-12T23:30:55;20.60;64.70
65406;DHT22;52016;51.228;-2.322;2022-09-12T23:34:37;20.50;64.80
65406;DHT22;52016;51.228;-2.322;2022-09-12T23:38:19;20.40;65.00
65406;DHT22;52016;51.228;-2.322;2022-09-12T23:42:00;20.40;65.10
65406;DHT22;52016;51.228;-2.322;2022-09-12T23:45:42;20.40;65.10
65406;DHT22;52016;51.228;-2.322;2022-09-12T23:49:24;20.40;65.20
65406;DHT22;52016;51.228;-2.322;2022-09-12T23:53:06;20.40;65.30
65406;DHT22;52016;51.228;-2.322;2022-09-12T23:56:47;20.30;65.40
